createdAt,value
2022-09-16T00:01:21.668Z,99.90
2022-09-16T00:04:08.018Z,99.90
2022-09-16T00:06:54.623Z,99.90
2022-09-16T00:09:42.619Z,99.90
2022-09-16T00:12:28.920Z,99.90
2022-09-16T00:15:15.339Z,99.90
2022-09-16T00:18:01.844Z,99.90
2022-09-16T00:20:49.539Z,99.90
2022-09-16T00:23:36.100Z,99.90
2022-09-16T00:26:24.027Z,99.90
2022-09-16T00:29:10.634Z,99.90
2022-09-16T00:31:57.155Z,99.90
2022-09-16T00:34:43.629Z,99.90
2022-09-16T00:37:32.503Z,99.90
2022-09-16T00:40:19.003Z,99.90
2022-09-16T00:43:06.947Z,99.90
2022-09-16T00:45:58.591Z,99.90
2022-09-16T00:48:45.638Z,99.90
2022-09-16T00:51:32.215Z,99.90
2022-09-16T00:54:19.854Z,99.90
2022-09-16T00:57:10.619Z,99.90
2022-09-16T01:00:00.729Z,99.90
2022-09-16T01:02:49.465Z,99.90
2022-09-16T01:05:38.263Z,99.90
2022-09-16T01:08:24.804Z,99.90
2022-09-16T01:11:11.054Z,99.90
2022-09-16T01:14:18.397Z,99.90
2022-09-16T01:17:20.384Z,99.90
2022-09-16T01:20:35.369Z,99.90
2022-09-16T01:23:42.449Z,99.90
2022-09-16T01:26:47.223Z,99.90
2022-09-16T01:30:19.029Z,99.90
2022-09-16T01:33:12.390Z,99.90
2022-09-16T01:36:09.522Z,99.90
2022-09-16T01:39:09.110Z,99.90
2022-09-16T01:42:14.398Z,99.90
2022-09-16T01:45:07.931Z,99.90
2022-09-16T01:47:59.083Z,99.90
2022-09-16T01:50:49.301Z,99.90
2022-09-16T01:53:40.625Z,99.90
2022-09-16T01:56:33.319Z,99.90
2022-09-16T01:59:24.194Z,99.90
2022-09-16T02:02:16.843Z,99.90
2022-09-16T02:05:08.962Z,99.90
2022-09-16T02:08:02.325Z,99.90
2022-09-16T02:10:52.598Z,99.90
2022-09-16T02:13:42.606Z,99.90
2022-09-16T02:16:35.721Z,99.90
2022-09-16T02:19:25.273Z,99.90
2022-09-16T02:22:16.344Z,99.90
2022-09-16T02:25:05.923Z,99.90
2022-09-16T02:27:53.979Z,99.90
2022-09-16T02:30:43.976Z,99.90
2022-09-16T02:33:34.303Z,99.90
2022-09-16T02:36:23.522Z,99.90
2022-09-16T02:39:15.344Z,99.90
2022-09-16T02:42:03.458Z,99.90
2022-09-16T02:44:50.097Z,99.90
2022-09-16T02:47:46.237Z,99.90
2022-09-16T02:50:41.539Z,99.90
2022-09-16T02:53:38.157Z,99.90
2022-09-16T02:56:30.754Z,99.90
2022-09-16T02:59:20.229Z,99.90
2022-09-16T03:02:06.958Z,99.90
2022-09-16T03:04:53.851Z,99.90
2022-09-16T03:07:41.873Z,99.90
2022-09-16T03:10:42.167Z,99.90
2022-09-16T03:13:36.900Z,99.90
2022-09-16T03:16:35.435Z,99.90
2022-09-16T03:19:27.789Z,99.90
2022-09-16T03:22:24.981Z,99.90
2022-09-16T03:25:18.996Z,99.90
2022-09-16T03:28:11.637Z,99.90
2022-09-16T03:31:09.063Z,99.90
2022-09-16T03:34:04.183Z,99.90
2022-09-16T03:36:53.925Z,99.90
2022-09-16T03:39:41.756Z,99.90
2022-09-16T03:42:28.371Z,99.90
2022-09-16T03:45:17.226Z,99.90
2022-09-16T03:48:03.526Z,99.90
2022-09-16T03:50:51.198Z,99.90
2022-09-16T03:53:37.647Z,99.90
2022-09-16T03:56:25.393Z,99.90
2022-09-16T03:59:11.972Z,99.90
2022-09-16T04:01:58.466Z,99.90
2022-09-16T04:04:44.653Z,99.90
2022-09-16T04:07:33.325Z,99.90
2022-09-16T04:10:20.291Z,99.90
2022-09-16T04:13:06.840Z,99.90
2022-09-16T04:15:53.150Z,99.90
2022-09-16T04:18:39.450Z,99.90
2022-09-16T04:21:26.242Z,99.90
2022-09-16T04:24:14.125Z,99.90
2022-09-16T04:27:00.406Z,99.90
2022-09-16T04:29:46.804Z,99.90
2022-09-16T04:32:33.333Z,99.90
2022-09-16T04:35:19.852Z,99.90
2022-09-16T04:38:06.357Z,99.90
2022-09-16T04:40:54.358Z,99.90
2022-09-16T04:43:41.490Z,99.90
2022-09-16T04:46:29.915Z,99.90
2022-09-16T04:49:16.443Z,99.90
2022-09-16T04:52:03.474Z,99.90
2022-09-16T04:54:49.872Z,99.90
2022-09-16T04:57:37.752Z,99.90
2022-09-16T05:00:24.318Z,99.90
2022-09-16T05:03:10.586Z,99.90
2022-09-16T05:06:05.576Z,99.90
2022-09-16T05:08:53.453Z,99.90
2022-09-16T05:11:41.433Z,99.90
2022-09-16T05:14:29.647Z,99.90
2022-09-16T05:17:33.083Z,99.90
2022-09-16T05:20:22.696Z,99.90
2022-09-16T05:23:08.878Z,99.90
2022-09-16T05:25:55.818Z,99.90
2022-09-16T05:28:43.112Z,99.90
2022-09-16T05:31:32.437Z,99.90
2022-09-16T05:34:21.288Z,99.90
2022-09-16T05:37:07.866Z,99.90
2022-09-16T05:39:55.421Z,99.90
2022-09-16T05:42:42.401Z,99.90
2022-09-16T05:45:32.225Z,99.90
2022-09-16T05:48:20.681Z,99.90
2022-09-16T05:51:08.060Z,99.90
2022-09-16T05:53:55.215Z,99.90
2022-09-16T05:56:42.451Z,99.90
2022-09-16T05:59:28.723Z,99.90
2022-09-16T06:02:15.293Z,99.90
2022-09-16T06:07:49.710Z,99.90
2022-09-16T06:10:39.159Z,99.90
2022-09-16T06:13:25.534Z,99.90
2022-09-16T06:16:13.438Z,99.90
2022-09-16T06:19:01.341Z,99.90
2022-09-16T06:21:49.106Z,99.90
2022-09-16T06:24:35.293Z,99.90
2022-09-16T06:27:21.929Z,99.90
2022-09-16T06:30:09.385Z,99.90
2022-09-16T06:32:55.516Z,99.90
2022-09-16T06:35:41.779Z,99.90
2022-09-16T06:38:29.989Z,99.90
2022-09-16T06:41:17.835Z,99.90
2022-09-16T06:44:04.329Z,99.90
2022-09-16T06:46:50.521Z,99.90
2022-09-16T06:49:37.036Z,99.90
2022-09-16T06:52:23.302Z,99.90
2022-09-16T06:55:11.491Z,99.90
2022-09-16T06:57:57.917Z,99.90
2022-09-16T07:00:44.444Z,99.90
2022-09-16T07:03:31.054Z,99.90
2022-09-16T07:06:18.535Z,99.90
2022-09-16T07:09:05.167Z,99.90
2022-09-16T07:11:52.853Z,99.90
2022-09-16T07:14:39.048Z,99.90
2022-09-16T07:17:27.186Z,99.90
2022-09-16T07:20:13.577Z,99.90
2022-09-16T07:23:00.178Z,99.90
2022-09-16T07:25:46.726Z,99.90
2022-09-16T07:28:35.294Z,99.90
2022-09-16T07:31:24.588Z,99.90
2022-09-16T07:34:13.516Z,99.90
2022-09-16T07:37:00.326Z,99.90
2022-09-16T07:39:46.769Z,99.90
2022-09-16T07:42:33.409Z,99.90
2022-09-16T07:45:21.422Z,99.90
2022-09-16T07:48:07.788Z,99.90
2022-09-16T07:50:58.932Z,99.90
2022-09-16T07:53:46.404Z,99.90
2022-09-16T07:56:34.462Z,99.90
2022-09-16T07:59:21.478Z,99.90
2022-09-16T08:02:10.532Z,99.90
2022-09-16T08:04:57.026Z,99.90
2022-09-16T08:07:43.415Z,99.90
2022-09-16T08:10:32.378Z,99.90
2022-09-16T08:13:19.245Z,99.90
2022-09-16T08:16:09.456Z,99.90
2022-09-16T08:18:59.109Z,99.90
2022-09-16T08:21:45.581Z,99.90
2022-09-16T08:24:32.430Z,99.90
2022-09-16T08:27:19.059Z,99.90
2022-09-16T08:30:06.594Z,99.90
2022-09-16T08:32:56.934Z,99.90
2022-09-16T08:35:44.736Z,99.90
2022-09-16T08:38:31.686Z,99.90
2022-09-16T08:41:37.606Z,99.90
2022-09-16T08:44:35.381Z,99.90
2022-09-16T08:47:35.908Z,99.90
2022-09-16T08:50:27.202Z,99.90
2022-09-16T08:53:20.375Z,99.90
2022-09-16T08:56:11.902Z,99.90
2022-09-16T08:59:01.472Z,99.90
2022-09-16T09:01:53.067Z,99.90
2022-09-16T09:04:39.874Z,99.90
2022-09-16T09:07:33.551Z,99.90
2022-09-16T09:10:26.248Z,99.90
2022-09-16T09:13:29.518Z,99.90
2022-09-16T09:16:24.032Z,99.90
2022-09-16T09:19:30.136Z,99.90
2022-09-16T09:22:28.966Z,99.90
2022-09-16T09:25:23.782Z,99.90
2022-09-16T09:28:28.290Z,99.90
2022-09-16T09:31:22.033Z,99.90
2022-09-16T09:34:20.949Z,99.90
2022-09-16T09:37:23.184Z,99.90
2022-09-16T09:40:14.553Z,99.90
2022-09-16T09:43:08.258Z,99.90
2022-09-16T09:46:00.987Z,99.90
2022-09-16T09:48:51.995Z,99.90
2022-09-16T09:51:42.266Z,99.90
2022-09-16T09:54:32.486Z,99.90
2022-09-16T09:57:28.129Z,99.90
2022-09-16T10:00:18.586Z,99.90
2022-09-16T10:03:10.947Z,99.90
2022-09-16T10:05:57.253Z,99.90
2022-09-16T10:08:47.626Z,99.90
2022-09-16T10:11:34.201Z,99.90
2022-09-16T10:14:27.761Z,99.90
2022-09-16T10:17:18.858Z,99.90
2022-09-16T10:20:20.968Z,99.90
2022-09-16T10:23:12.741Z,99.90
2022-09-16T10:26:08.417Z,99.90
2022-09-16T10:29:02.827Z,99.90
2022-09-16T10:31:49.734Z,99.90
2022-09-16T10:34:41.942Z,99.90
2022-09-16T10:37:28.637Z,99.90
2022-09-16T10:40:18.356Z,99.90
2022-09-16T10:43:07.220Z,99.90
2022-09-16T10:45:55.209Z,99.90
2022-09-16T10:48:43.627Z,99.90
2022-09-16T10:51:35.678Z,99.90
2022-09-16T10:54:28.208Z,99.90
2022-09-16T10:57:24.249Z,99.90
2022-09-16T11:00:16.045Z,99.90
2022-09-16T11:03:28.828Z,99.90
2022-09-16T11:06:30.154Z,99.90
2022-09-16T11:09:30.161Z,99.90
2022-09-16T11:12:56.481Z,99.90
2022-09-16T11:15:56.791Z,99.90
2022-09-16T11:18:54.171Z,99.90
2022-09-16T11:21:55.897Z,99.90
2022-09-16T11:24:56.429Z,99.90
2022-09-16T11:27:51.839Z,99.90
2022-09-16T11:30:48.003Z,99.90
2022-09-16T11:33:41.217Z,99.90
2022-09-16T11:36:42.286Z,99.90
2022-09-16T11:39:44.337Z,99.90
2022-09-16T11:42:35.966Z,99.90
2022-09-16T11:45:35.707Z,99.90
2022-09-16T11:51:31.497Z,99.90
2022-09-16T11:54:33.778Z,99.90
2022-09-16T11:57:25.403Z,99.90
2022-09-16T12:00:16.724Z,99.90
2022-09-16T12:03:10.468Z,99.90
2022-09-16T12:06:05.116Z,99.90
2022-09-16T12:08:57.365Z,99.90
2022-09-16T12:11:47.422Z,99.90
2022-09-16T12:14:38.517Z,99.90
2022-09-16T12:17:30.527Z,99.90
2022-09-16T12:20:20.558Z,99.90
2022-09-16T12:23:15.370Z,99.90
2022-09-16T12:26:06.221Z,99.90
2022-09-16T12:28:57.863Z,99.90
2022-09-16T12:31:50.009Z,99.90
2022-09-16T12:34:43.081Z,99.90
2022-09-16T12:37:37.328Z,99.90
2022-09-16T12:40:26.869Z,99.90
2022-09-16T12:43:40.592Z,99.90
2022-09-16T12:46:49.419Z,99.90
2022-09-16T12:50:04.226Z,99.90
2022-09-16T12:53:22.228Z,99.90
2022-09-16T12:56:15.818Z,99.90
2022-09-16T12:59:25.705Z,99.90
2022-09-16T13:02:17.328Z,99.90
2022-09-16T13:05:14.334Z,99.90
2022-09-16T13:08:04.523Z,99.90
2022-09-16T13:11:28.052Z,99.90
2022-09-16T13:14:05.585Z,99.90
2022-09-16T13:16:57.035Z,99.90
2022-09-16T13:19:50.610Z,99.90
2022-09-16T13:22:47.192Z,99.90
2022-09-16T13:25:42.990Z,99.90
2022-09-16T13:28:38.117Z,99.90
2022-09-16T13:31:34.181Z,99.90
2022-09-16T13:34:21.873Z,99.90
2022-09-16T13:37:16.214Z,99.90
2022-09-16T13:40:18.492Z,99.90
2022-09-16T13:43:13.894Z,99.90
2022-09-16T13:46:06.023Z,99.90
2022-09-16T13:48:57.754Z,99.90
2022-09-16T13:51:46.216Z,99.90
2022-09-16T13:54:53.490Z,99.90
2022-09-16T13:57:58.790Z,99.90
2022-09-16T14:00:53.868Z,99.50
2022-09-16T14:03:48.202Z,99.50
2022-09-16T14:07:03.931Z,99.20
2022-09-16T14:10:01.466Z,99.40
2022-09-16T14:13:03.062Z,99.50
2022-09-16T14:15:52.566Z,99.80
2022-09-16T14:18:44.361Z,99.90
2022-09-16T14:21:31.702Z,99.50
2022-09-16T14:24:27.281Z,99.40
2022-09-16T14:27:22.511Z,99.90
2022-09-16T14:30:16.821Z,99.90
2022-09-16T14:33:03.953Z,99.90
2022-09-16T14:35:51.034Z,99.90
2022-09-16T14:38:46.135Z,99.90
2022-09-16T14:41:36.922Z,99.90
2022-09-16T14:44:34.770Z,99.90
2022-09-16T14:47:39.848Z,99.90
2022-09-16T14:50:33.410Z,99.90
2022-09-16T14:53:35.364Z,99.90
2022-09-16T14:56:22.772Z,99.90
2022-09-16T14:59:13.482Z,99.90
2022-09-16T15:02:05.749Z,99.50
2022-09-16T15:04:56.396Z,98.60
2022-09-16T15:08:02.612Z,98.40
2022-09-16T15:10:55.122Z,98.50
2022-09-16T15:13:44.745Z,98.80
2022-09-16T15:16:32.282Z,98.70
2022-09-16T15:19:22.239Z,97.80
2022-09-16T15:22:15.733Z,97.60
2022-09-16T15:25:02.183Z,97.50
2022-09-16T15:27:48.407Z,97.10
2022-09-16T15:30:36.046Z,97.60
2022-09-16T15:33:29.942Z,97.60
2022-09-16T15:36:34.539Z,97.60
2022-09-16T15:39:25.472Z,97.60
2022-09-16T15:42:14.202Z,97.70
2022-09-16T15:45:02.952Z,97.60
2022-09-16T15:47:57.972Z,97.30
2022-09-16T15:50:48.173Z,97.60
2022-09-16T15:53:46.683Z,97.20
2022-09-16T15:56:36.667Z,97.40
2022-09-16T15:59:28.473Z,97.20
2022-09-16T16:02:27.442Z,97.10
2022-09-16T16:05:16.999Z,97.50
2022-09-16T16:08:09.662Z,97.20
2022-09-16T16:11:08.222Z,97.70
2022-09-16T16:13:59.851Z,98.10
2022-09-16T16:17:11.221Z,98.10
2022-09-16T16:19:57.564Z,97.80
2022-09-16T16:22:45.403Z,96.90
2022-09-16T16:25:32.199Z,96.80
2022-09-16T16:28:18.886Z,96.80
2022-09-16T16:31:14.876Z,97.00
2022-09-16T16:34:01.370Z,97.30
2022-09-16T16:36:47.910Z,97.00
2022-09-16T16:39:35.134Z,97.00
2022-09-16T16:42:23.037Z,97.30
2022-09-16T16:45:10.198Z,97.30
2022-09-16T16:47:58.001Z,97.30
2022-09-16T16:50:44.776Z,97.20
2022-09-16T16:53:32.002Z,96.90
2022-09-16T16:59:05.427Z,97.10
2022-09-16T17:01:54.245Z,97.60
2022-09-16T17:04:42.092Z,98.30
2022-09-16T17:07:29.023Z,98.00
2022-09-16T17:10:15.871Z,98.20
2022-09-16T17:13:02.446Z,97.80
2022-09-16T17:15:48.994Z,97.70
2022-09-16T17:18:36.410Z,97.90
2022-09-16T17:21:25.406Z,98.10
2022-09-16T17:24:12.014Z,98.20
2022-09-16T17:26:58.254Z,98.10
2022-09-16T17:29:44.758Z,97.80
2022-09-16T17:32:30.833Z,97.80
2022-09-16T17:35:17.381Z,98.20
2022-09-16T17:38:07.063Z,97.90
2022-09-16T17:40:53.398Z,97.70
2022-09-16T17:43:41.035Z,97.10
2022-09-16T17:46:28.621Z,97.10
2022-09-16T17:49:17.277Z,97.20
2022-09-16T17:52:03.637Z,97.20
2022-09-16T17:54:51.587Z,97.30
2022-09-16T17:57:38.050Z,97.40
2022-09-16T18:00:24.274Z,97.50
2022-09-16T18:03:12.996Z,98.00
2022-09-16T18:06:05.328Z,98.10
2022-09-16T18:08:52.928Z,98.50
2022-09-16T18:11:41.364Z,98.70
2022-09-16T18:14:27.761Z,99.00
2022-09-16T18:17:13.896Z,99.30
2022-09-16T18:20:04.942Z,99.50
2022-09-16T18:22:53.587Z,99.70
2022-09-16T18:25:40.010Z,99.90
2022-09-16T18:28:27.540Z,99.90
2022-09-16T18:31:16.641Z,99.90
2022-09-16T18:34:03.021Z,99.90
2022-09-16T18:36:49.500Z,99.90
2022-09-16T18:39:35.739Z,99.90
2022-09-16T18:42:22.179Z,99.90
2022-09-16T18:45:10.678Z,99.90
2022-09-16T18:47:57.152Z,99.90
2022-09-16T18:50:43.658Z,99.90
2022-09-16T18:53:30.234Z,99.90
2022-09-16T18:56:19.005Z,99.90
2022-09-16T18:59:24.005Z,99.90
2022-09-16T19:02:14.324Z,99.90
2022-09-16T19:05:01.697Z,99.90
2022-09-16T19:07:48.161Z,99.90
2022-09-16T19:10:35.185Z,99.90
2022-09-16T19:13:21.714Z,99.90
2022-09-16T19:16:08.183Z,99.90
2022-09-16T19:18:57.238Z,99.90
2022-09-16T19:21:44.156Z,99.90
2022-09-16T19:24:30.829Z,99.90
2022-09-16T19:27:17.391Z,99.90
2022-09-16T19:30:04.482Z,99.90
2022-09-16T19:32:51.902Z,99.90
2022-09-16T19:35:39.542Z,99.90
2022-09-16T19:38:28.331Z,99.90
2022-09-16T19:41:15.690Z,99.90
2022-09-16T19:44:05.646Z,99.90
2022-09-16T19:46:52.190Z,99.90
2022-09-16T19:49:38.566Z,99.90
2022-09-16T19:52:26.175Z,99.90
2022-09-16T19:55:12.404Z,99.90
2022-09-16T19:57:58.750Z,99.90
2022-09-16T20:00:55.917Z,99.90
2022-09-16T20:03:44.460Z,99.90
2022-09-16T20:06:34.821Z,99.90
2022-09-16T20:09:22.633Z,99.90
2022-09-16T20:12:09.147Z,99.90
2022-09-16T20:14:55.497Z,99.90
2022-09-16T20:17:42.317Z,99.90
2022-09-16T20:20:28.461Z,99.90
2022-09-16T20:23:15.030Z,99.90
2022-09-16T20:26:04.781Z,99.90
2022-09-16T20:28:52.354Z,99.90
2022-09-16T20:31:38.996Z,99.90
2022-09-16T20:34:26.075Z,99.90
2022-09-16T20:37:12.410Z,99.90
2022-09-16T20:39:58.512Z,99.90
2022-09-16T20:42:46.285Z,99.90
2022-09-16T20:45:32.888Z,99.90
2022-09-16T20:48:19.222Z,99.90
2022-09-16T20:51:07.181Z,99.90
2022-09-16T20:53:54.986Z,99.90
2022-09-16T20:56:43.243Z,99.90
2022-09-16T20:59:33.743Z,99.90
2022-09-16T21:02:20.355Z,99.90
2022-09-16T21:05:07.167Z,99.90
2022-09-16T21:07:53.285Z,99.90
2022-09-16T21:10:39.569Z,99.90
2022-09-16T21:13:26.121Z,99.90
2022-09-16T21:16:16.462Z,99.90
2022-09-16T21:19:04.200Z,99.90
2022-09-16T21:21:50.977Z,99.90
2022-09-16T21:24:37.791Z,99.90
2022-09-16T21:27:24.375Z,99.90
2022-09-16T21:30:12.294Z,99.90
2022-09-16T21:33:00.398Z,99.90
2022-09-16T21:35:51.760Z,99.90
2022-09-16T21:38:38.445Z,99.90
2022-09-16T21:41:25.745Z,99.90
2022-09-16T21:44:12.871Z,99.90
2022-09-16T21:46:59.139Z,99.90
2022-09-16T21:49:50.067Z,99.90
2022-09-16T21:52:36.497Z,99.90
2022-09-16T21:55:22.806Z,99.90
2022-09-16T21:58:09.977Z,99.90
2022-09-16T22:01:07.616Z,99.90
2022-09-16T22:03:56.167Z,99.90
2022-09-16T22:06:44.130Z,99.90
2022-09-16T22:09:31.582Z,99.90
2022-09-16T22:12:18.069Z,99.90
2022-09-16T22:15:05.150Z,99.90
2022-09-16T22:17:54.033Z,99.90
2022-09-16T22:20:40.487Z,99.90
2022-09-16T22:23:28.139Z,99.90
2022-09-16T22:26:16.390Z,99.90
2022-09-16T22:29:03.530Z,99.90
2022-09-16T22:31:50.051Z,99.90
2022-09-16T22:34:36.774Z,99.90
2022-09-16T22:37:23.513Z,99.90
2022-09-16T22:40:11.712Z,99.90
2022-09-16T22:42:58.219Z,99.90
2022-09-16T22:45:44.510Z,99.90
2022-09-16T22:48:30.905Z,99.90
2022-09-16T22:51:18.386Z,99.90
2022-09-16T22:54:05.467Z,99.90
2022-09-16T22:56:53.390Z,99.90
2022-09-16T22:59:39.959Z,99.90
2022-09-16T23:02:26.302Z,99.90
2022-09-16T23:05:13.384Z,99.90
2022-09-16T23:07:59.684Z,99.90
2022-09-16T23:10:46.508Z,99.90
2022-09-16T23:13:36.138Z,99.90
2022-09-16T23:16:24.391Z,99.90
2022-09-16T23:19:12.122Z,99.90
2022-09-16T23:21:58.605Z,99.90
2022-09-16T23:24:44.929Z,99.90
2022-09-16T23:27:31.488Z,99.90
2022-09-16T23:30:19.537Z,99.90
2022-09-16T23:33:05.961Z,99.90
2022-09-16T23:35:52.490Z,99.90
2022-09-16T23:38:40.042Z,99.90
2022-09-16T23:41:27.706Z,99.90
2022-09-16T23:44:15.785Z,99.90
2022-09-16T23:47:03.237Z,99.90
2022-09-16T23:49:49.681Z,99.90
2022-09-16T23:52:35.974Z,99.90
2022-09-16T23:55:22.541Z,99.90
2022-09-16T23:58:09.033Z,99.90
